Time;durP1;ratioP1;P1;durP2;ratioP2;P2;SDS_P1;SDS_P2;PMS_P1;PMS_P2;Temp;Humidity;BMP_temperature;BMP_pressure;BME280_temperature;BME280_humidity;BME280_pressure;Samples;Min_cycle;Max_cycle;Signal;HPM_P1;HPM_P2
2024/01/09 00:02:16;;;;;;;14.38;7.22;;;-5.50;99.90;;;;;;5093592;28;20103;-71
2024/01/09 00:04:42;;;;;;;16.88;7.65;;;-5.60;99.90;;;;;;5093316;28;20066;-71
2024/01/09 00:07:07;;;;;;;16.15;7.90;;;-5.70;99.90;;;;;;5093363;28;20035;-71
2024/01/09 00:09:36;;;;;;;15.55;8.23;;;-5.70;99.90;;;;;;5093112;28;20530;-71
2024/01/09 00:12:02;;;;;;;18.20;8.43;;;-5.70;99.90;;;;;;5075297;28;20032;-71
2024/01/09 00:14:28;;;;;;;16.60;7.97;;;-5.70;99.90;;;;;;5093018;28;20024;-71
2024/01/09 00:16:54;;;;;;;17.80;8.32;;;-5.80;99.90;;;;;;5093587;28;20099;-71
2024/01/09 00:19:19;;;;;;;14.93;7.00;;;-5.70;99.90;;;;;;5094201;28;20024;-71
2024/01/09 00:21:48;;;;;;;15.07;8.10;;;-5.70;99.90;;;;;;5097445;28;20030;-71
2024/01/09 00:24:14;;;;;;;15.73;8.05;;;-5.60;99.90;;;;;;5097015;28;20468;-71
2024/01/09 00:26:43;;;;;;;15.15;7.63;;;-5.60;99.90;;;;;;5097339;28;20042;-71
2024/01/09 00:29:10;;;;;;;15.82;7.22;;;-5.60;99.90;;;;;;5096967;28;20028;-71
2024/01/09 00:31:36;;;;;;;16.48;7.53;;;-5.50;99.90;;;;;;5097294;28;20052;-71
2024/01/09 00:34:02;;;;;;;13.82;7.45;;;-5.40;99.90;;;;;;5097156;28;20087;-71
2024/01/09 00:36:28;;;;;;;15.02;7.53;;;-5.30;99.90;;;;;;5096932;28;20066;-71
2024/01/09 00:38:53;;;;;;;16.50;7.57;;;-5.20;99.90;;;;;;5097123;28;20035;-71
2024/01/09 00:41:19;;;;;;;14.77;7.47;;;-5.10;99.90;;;;;;5097599;28;20032;-71
2024/01/09 00:43:45;;;;;;;18.25;8.25;;;-5.10;99.90;;;;;;5078777;28;20028;-71
2024/01/09 00:46:10;;;;;;;16.67;7.75;;;-5.20;99.90;;;;;;5097012;28;20110;-71
2024/01/09 00:48:36;;;;;;;20.52;9.48;;;-5.30;99.90;;;;;;5096867;28;20111;-71
2024/01/09 00:51:02;;;;;;;16.73;8.40;;;-5.40;99.90;;;;;;5096657;28;20118;-72
2024/01/09 00:53:27;;;;;;;18.17;8.75;;;-5.60;99.90;;;;;;5097069;28;20024;-72
2024/01/09 00:55:53;;;;;;;17.42;8.88;;;-5.70;99.90;;;;;;5096870;28;20043;-72
2024/01/09 00:58:19;;;;;;;20.08;9.30;;;-5.70;99.90;;;;;;5096541;28;20028;-71
2024/01/09 01:00:45;;;;;;;18.63;9.00;;;-5.70;99.90;;;;;;5097004;28;20476;-72
2024/01/09 01:03:11;;;;;;;17.67;8.13;;;-5.80;99.90;;;;;;5096575;28;20031;-71
2024/01/09 01:05:36;;;;;;;19.52;8.95;;;-5.80;99.90;;;;;;5096412;28;20463;-72
2024/01/09 01:08:02;;;;;;;17.55;8.35;;;-5.80;99.90;;;;;;5096520;28;20028;-72
2024/01/09 01:10:28;;;;;;;16.92;8.70;;;-5.70;99.90;;;;;;5096718;28;20079;-72
2024/01/09 01:12:53;;;;;;;17.25;8.63;;;-5.70;99.90;;;;;;5096416;28;20024;-72
2024/01/09 01:15:19;;;;;;;16.48;8.70;;;-5.50;99.90;;;;;;5096240;28;20418;-72
2024/01/09 01:17:45;;;;;;;18.42;8.93;;;-5.40;99.90;;;;;;5096390;28;20051;-72
2024/01/09 01:20:10;;;;;;;22.48;9.75;;;-5.40;99.90;;;;;;5096011;28;20039;-72
2024/01/09 01:22:36;;;;;;;24.77;10.45;;;-5.50;99.90;;;;;;5096223;28;20028;-72
2024/01/09 01:25:03;;;;;;;30.65;13.07;;;-5.50;99.90;;;;;;5096236;28;20028;-72
2024/01/09 01:27:28;;;;;;;29.92;13.55;;;-5.60;99.90;;;;;;5096157;28;20032;-72
2024/01/09 01:29:55;;;;;;;22.25;11.43;;;-5.60;99.90;;;;;;5095822;28;20032;-72
2024/01/09 01:32:20;;;;;;;20.70;10.18;;;-5.60;99.90;;;;;;5095553;28;20115;-73
2024/01/09 01:34:46;;;;;;;18.90;9.43;;;-5.50;99.90;;;;;;5075717;28;20108;-72
2024/01/09 01:37:12;;;;;;;17.63;8.43;;;-5.50;99.90;;;;;;5075981;28;20040;-72
2024/01/09 01:39:37;;;;;;;16.13;8.85;;;-5.50;99.90;;;;;;5079405;28;20032;-72
2024/01/09 01:42:03;;;;;;;14.52;7.68;;;-5.50;99.90;;;;;;5095940;28;20507;-72
2024/01/09 01:44:29;;;;;;;17.77;8.40;;;-5.60;99.90;;;;;;5077422;28;20396;-73
2024/01/09 01:46:55;;;;;;;16.73;8.20;;;-5.50;99.90;;;;;;5095522;28;20056;-72
2024/01/09 01:49:21;;;;;;;16.95;7.30;;;-5.50;99.90;;;;;;5095493;28;20028;-72
2024/01/09 01:51:50;;;;;;;16.23;8.00;;;-5.50;99.90;;;;;;5095763;28;20028;-72
2024/01/09 01:54:16;;;;;;;15.00;8.18;;;-5.60;99.90;;;;;;5096499;28;20024;-73
2024/01/09 01:56:44;;;;;;;17.95;8.35;;;-5.70;99.90;;;;;;5095613;28;20371;-72
2024/01/09 01:59:13;;;;;;;15.00;7.63;;;-5.80;99.90;;;;;;5095321;28;20027;-73
2024/01/09 02:01:39;;;;;;;18.08;8.48;;;-5.90;99.90;;;;;;5095340;28;20051;-73
2024/01/09 02:04:07;;;;;;;20.05;8.77;;;-5.80;99.90;;;;;;5095619;28;20024;-73
2024/01/09 02:06:33;;;;;;;13.80;7.22;;;-5.70;99.90;;;;;;5095488;28;20107;-72
2024/01/09 02:08:59;;;;;;;18.60;7.90;;;-5.70;99.90;;;;;;5094871;28;20376;-73
2024/01/09 02:11:25;;;;;;;17.23;8.13;;;-5.60;99.90;;;;;;5095327;28;20073;-72
2024/01/09 02:13:51;;;;;;;17.35;8.23;;;-5.50;99.90;;;;;;5095135;28;20388;-73
2024/01/09 02:16:17;;;;;;;18.88;9.40;;;-5.40;99.90;;;;;;5087798;28;20029;-73
2024/01/09 02:18:42;;;;;;;15.70;7.82;;;-5.40;99.90;;;;;;5093967;28;20503;-73
2024/01/09 02:21:08;;;;;;;16.92;7.78;;;-5.30;99.90;;;;;;5095162;28;20036;-73
2024/01/09 02:23:33;;;;;;;15.60;7.82;;;-5.30;99.90;;;;;;5095033;28;20024;-72
2024/01/09 02:26:00;;;;;;;18.70;7.65;;;-5.20;99.90;;;;;;5095043;28;20034;-72
2024/01/09 02:28:32;;;;;;;18.42;8.45;;;-5.20;99.90;;;;;;5095161;28;20168;-72
2024/01/09 02:30:58;;;;;;;16.60;8.45;;;-5.20;99.90;;;;;;5094669;28;20016;-72
2024/01/09 02:33:24;;;;;;;17.08;8.23;;;-5.20;99.90;;;;;;5095070;28;20111;-73
2024/01/09 02:35:50;;;;;;;20.45;8.70;;;-5.20;99.90;;;;;;5095470;28;20028;-72
2024/01/09 02:38:15;;;;;;;16.33;8.10;;;-5.20;99.90;;;;;;5095105;28;20028;-72
2024/01/09 02:40:41;;;;;;;19.23;8.43;;;-5.20;99.90;;;;;;5094744;28;20028;-72
2024/01/09 02:43:07;;;;;;;16.75;8.80;;;-5.30;99.90;;;;;;5093820;28;20032;-72
2024/01/09 02:45:33;;;;;;;16.05;8.20;;;-5.30;99.90;;;;;;5094295;28;20028;-72
2024/01/09 02:47:59;;;;;;;16.10;8.23;;;-5.30;99.90;;;;;;5094636;28;20391;-72
2024/01/09 02:50:25;;;;;;;15.65;8.10;;;-5.30;99.90;;;;;;5094309;28;20067;-72
2024/01/09 02:52:50;;;;;;;17.05;8.15;;;-5.50;99.90;;;;;;5093309;28;20032;-72
2024/01/09 02:55:16;;;;;;;16.88;7.78;;;-5.60;99.90;;;;;;5094570;28;20094;-72
2024/01/09 02:57:42;;;;;;;18.70;8.57;;;-5.60;99.90;;;;;;5094459;28;20491;-72
2024/01/09 03:00:08;;;;;;;15.32;8.52;;;-5.60;99.90;;;;;;5094229;28;20035;-72
2024/01/09 03:02:35;;;;;;;15.82;8.20;;;-5.60;99.90;;;;;;5094359;28;20103;-72
2024/01/09 03:05:08;;;;;;;34.35;15.20;;;-5.60;99.90;;;;;;5070947;28;20801;-74
2024/01/09 03:07:34;;;;;;;27.75;13.20;;;-5.60;99.90;;;;;;5070982;28;20033;-74
2024/01/09 03:10:00;;;;;;;31.83;14.45;;;-5.60;99.90;;;;;;5062600;28;20394;-74
2024/01/09 03:12:26;;;;;;;30.25;13.30;;;-5.80;99.90;;;;;;5051026;28;20397;-73
2024/01/09 03:14:51;;;;;;;25.95;10.95;;;-6.00;99.90;;;;;;5050289;28;20026;-74
2024/01/09 03:17:17;;;;;;;23.85;11.05;;;-6.10;99.90;;;;;;5050547;28;20037;-74
2024/01/09 03:19:43;;;;;;;20.92;9.82;;;-6.20;99.90;;;;;;5050459;28;20044;-74
2024/01/09 03:22:08;;;;;;;24.45;10.80;;;-6.30;99.90;;;;;;5050595;28;20025;-73
2024/01/09 03:24:34;;;;;;;21.02;10.43;;;-6.40;99.90;;;;;;5050264;28;20037;-74
2024/01/09 03:27:00;;;;;;;19.00;9.55;;;-6.40;99.90;;;;;;5050615;28;20086;-74
2024/01/09 03:29:26;;;;;;;18.75;8.68;;;-6.40;99.90;;;;;;5050069;28;20044;-74
2024/01/09 03:31:51;;;;;;;15.73;7.60;;;-6.30;99.90;;;;;;5050279;28;20026;-74
2024/01/09 03:34:17;;;;;;;16.92;8.23;;;-6.20;99.90;;;;;;5050161;28;20025;-74
2024/01/09 03:36:46;;;;;;;17.38;8.27;;;-6.20;99.90;;;;;;5050190;28;20108;-74
2024/01/09 03:39:14;;;;;;;18.02;8.95;;;-6.10;99.90;;;;;;5065891;28;20025;-73
2024/01/09 03:41:44;;;;;;;17.75;9.00;;;-6.10;99.90;;;;;;5050105;28;20422;-74
2024/01/09 03:44:12;;;;;;;19.27;9.70;;;-6.10;99.90;;;;;;5049684;28;20033;-74
2024/01/09 03:46:38;;;;;;;18.15;8.23;;;-6.00;99.90;;;;;;5050009;28;20067;-74
2024/01/09 03:49:03;;;;;;;15.90;8.07;;;-6.00;99.90;;;;;;5049926;28;20029;-74
2024/01/09 03:51:29;;;;;;;15.90;8.45;;;-5.90;99.90;;;;;;5049862;28;20028;-74
2024/01/09 03:53:55;;;;;;;18.65;8.18;;;-5.90;99.90;;;;;;5052972;28;20420;-74
2024/01/09 03:56:21;;;;;;;18.88;8.90;;;-6.00;99.90;;;;;;5069697;28;20033;-73
2024/01/09 03:58:46;;;;;;;17.58;8.30;;;-6.00;99.90;;;;;;5069362;28;20523;-73
2024/01/09 04:01:12;;;;;;;14.43;7.88;;;-6.00;99.90;;;;;;5069606;28;20033;-73
2024/01/09 04:03:37;;;;;;;15.75;8.23;;;-6.00;99.90;;;;;;5069275;28;20024;-74
2024/01/09 04:06:03;;;;;;;19.85;9.48;;;-6.00;99.90;;;;;;5069736;28;20043;-74
2024/01/09 04:08:29;;;;;;;21.83;10.55;;;-5.90;99.90;;;;;;5069396;28;20033;-74
2024/01/09 04:10:55;;;;;;;18.55;9.45;;;-5.80;99.90;;;;;;5056104;28;20029;-73
2024/01/09 04:13:20;;;;;;;22.95;8.45;;;-5.80;99.90;;;;;;5049439;28;20036;-73
2024/01/09 04:15:46;;;;;;;17.77;8.40;;;-5.80;99.90;;;;;;5040002;28;20104;-73
2024/01/09 04:18:12;;;;;;;17.33;8.82;;;-5.70;99.90;;;;;;5036131;28;20104;-74
2024/01/09 04:20:39;;;;;;;18.52;8.93;;;-5.70;99.90;;;;;;5036657;28;20025;-74
2024/01/09 04:23:05;;;;;;;17.00;7.97;;;-5.70;99.90;;;;;;5035906;28;20099;-74
2024/01/09 04:25:30;;;;;;;20.60;9.75;;;-5.70;99.90;;;;;;5036023;28;20084;-74
2024/01/09 04:27:56;;;;;;;18.10;8.80;;;-5.70;99.90;;;;;;5036963;28;20037;-74
2024/01/09 04:30:22;;;;;;;18.40;9.13;;;-5.70;99.90;;;;;;5035709;28;20100;-74
2024/01/09 04:32:47;;;;;;;17.65;8.20;;;-5.70;99.90;;;;;;5035786;28;20021;-74
2024/01/09 04:35:13;;;;;;;19.33;9.52;;;-5.70;99.90;;;;;;5036067;28;20029;-74
2024/01/09 04:37:39;;;;;;;21.83;9.45;;;-5.70;99.90;;;;;;5036035;28;20029;-74
2024/01/09 04:40:05;;;;;;;19.58;9.13;;;-5.60;99.90;;;;;;5036243;28;20025;-74
2024/01/09 04:42:31;;;;;;;17.27;8.93;;;-5.60;99.90;;;;;;5035639;28;20029;-74
2024/01/09 04:44:57;;;;;;;15.85;8.63;;;-5.70;99.90;;;;;;5035395;28;20045;-74
2024/01/09 04:47:23;;;;;;;18.48;8.63;;;-5.70;99.90;;;;;;5034883;28;20034;-74
2024/01/09 04:49:49;;;;;;;16.90;8.75;;;-5.70;99.90;;;;;;5035576;28;20022;-74
2024/01/09 04:52:14;;;;;;;18.67;9.40;;;-5.70;99.90;;;;;;5035518;28;20498;-74
2024/01/09 04:54:40;;;;;;;18.48;8.07;;;-5.70;99.90;;;;;;5035391;28;20044;-74
2024/01/09 04:57:06;;;;;;;16.98;8.73;;;-5.70;99.90;;;;;;5035684;28;20029;-74
2024/01/09 04:59:31;;;;;;;20.35;9.30;;;-5.80;99.90;;;;;;5035563;28;20074;-74
2024/01/09 05:02:01;;;;;;;16.02;8.70;;;-5.80;99.90;;;;;;5035265;28;20505;-74
2024/01/09 05:04:29;;;;;;;22.65;11.02;;;-5.90;99.90;;;;;;5035035;28;20114;-74
2024/01/09 05:06:55;;;;;;;22.17;10.50;;;-5.90;99.90;;;;;;5035270;28;20034;-74
2024/01/09 05:09:21;;;;;;;21.63;9.50;;;-5.80;99.90;;;;;;5035363;28;20100;-74
2024/01/09 05:11:47;;;;;;;16.77;8.40;;;-5.80;99.90;;;;;;5055344;28;20032;-74
2024/01/09 05:14:12;;;;;;;17.67;8.68;;;-5.80;99.90;;;;;;5054792;28;20056;-73
2024/01/09 05:16:38;;;;;;;17.55;9.43;;;-5.80;99.90;;;;;;5052125;28;20033;-73
2024/01/09 05:19:03;;;;;;;19.58;9.30;;;-5.90;99.90;;;;;;5035241;28;20032;-74
2024/01/09 05:21:30;;;;;;;22.25;9.82;;;-6.00;99.90;;;;;;5034910;28;20033;-74
2024/01/09 05:23:56;;;;;;;21.40;9.93;;;-6.00;99.90;;;;;;5034984;28;20032;-75
2024/01/09 05:26:22;;;;;;;20.05;9.15;;;-6.00;99.90;;;;;;5034355;28;20034;-74
2024/01/09 05:28:47;;;;;;;19.25;9.80;;;-6.00;99.90;;;;;;5034630;28;20113;-74
2024/01/09 05:31:13;;;;;;;21.23;9.68;;;-5.90;99.90;;;;;;5034896;28;20029;-74
2024/01/09 05:33:39;;;;;;;21.65;10.13;;;-6.00;99.90;;;;;;5035967;28;20045;-74
2024/01/09 05:36:06;;;;;;;21.85;10.82;;;-5.90;99.90;;;;;;5034872;28;20026;-74
2024/01/09 05:38:32;;;;;;;18.40;9.88;;;-5.90;99.90;;;;;;5034607;28;20026;-75
2024/01/09 05:40:57;;;;;;;23.40;11.82;;;-5.90;99.90;;;;;;5034565;28;20025;-74
2024/01/09 05:43:23;;;;;;;23.80;11.65;;;-5.90;99.90;;;;;;5034413;28;20481;-76
2024/01/09 05:45:49;;;;;;;24.38;10.48;;;-5.90;99.90;;;;;;5033230;28;20052;-74
2024/01/09 05:48:14;;;;;;;24.67;11.75;;;-5.90;99.90;;;;;;5016740;28;20065;-74
2024/01/09 05:50:40;;;;;;;27.15;11.23;;;-5.80;99.90;;;;;;5034357;28;20064;-75
2024/01/09 05:53:07;;;;;;;25.80;11.73;;;-5.80;99.90;;;;;;5034457;28;20048;-75
2024/01/09 05:55:33;;;;;;;21.52;11.25;;;-5.90;99.90;;;;;;5033064;28;20055;-75
2024/01/09 05:57:59;;;;;;;22.17;10.40;;;-5.90;99.90;;;;;;5036362;28;20036;-74
2024/01/09 06:00:24;;;;;;;22.85;9.95;;;-5.90;99.90;;;;;;5052954;28;20040;-75
2024/01/09 06:02:51;;;;;;;22.75;10.85;;;-5.90;99.90;;;;;;5053377;28;20072;-75
2024/01/09 06:05:17;;;;;;;24.67;12.02;;;-6.10;99.90;;;;;;5054126;28;20025;-75
2024/01/09 06:07:42;;;;;;;25.75;12.07;;;-6.20;99.90;;;;;;5054219;28;20025;-75
2024/01/09 06:10:09;;;;;;;33.97;14.93;;;-6.20;99.90;;;;;;5046607;28;20112;-75
2024/01/09 06:12:35;;;;;;;22.50;10.85;;;-6.20;99.90;;;;;;5034203;28;20021;-74
2024/01/09 06:15:00;;;;;;;22.13;9.82;;;-6.20;99.90;;;;;;5034826;28;20178;-75
2024/01/09 06:17:26;;;;;;;20.67;9.65;;;-6.30;99.90;;;;;;5032817;28;20037;-75
2024/01/09 06:19:52;;;;;;;16.65;8.57;;;-6.30;99.90;;;;;;5033931;28;20382;-75
2024/01/09 06:22:18;;;;;;;35.92;13.48;;;-6.30;99.90;;;;;;5034132;28;20113;-75
2024/01/09 06:24:43;;;;;;;57.33;19.27;;;-6.30;99.90;;;;;;5033650;28;20040;-75
2024/01/09 06:27:09;;;;;;;61.42;20.85;;;-6.40;99.90;;;;;;5033765;28;20028;-75
2024/01/09 06:29:35;;;;;;;34.63;14.10;;;-6.40;99.90;;;;;;5033503;28;20021;-74
2024/01/09 06:32:00;;;;;;;26.00;10.48;;;-6.50;99.90;;;;;;5033497;28;20375;-75
2024/01/09 06:34:26;;;;;;;26.80;10.73;;;-6.50;99.90;;;;;;5032438;28;20424;-74
2024/01/09 06:36:52;;;;;;;22.45;9.43;;;-6.50;99.90;;;;;;5033909;28;20079;-74
2024/01/09 06:39:18;;;;;;;20.27;8.43;;;-6.50;99.90;;;;;;5033325;28;20025;-75
2024/01/09 06:41:44;;;;;;;15.40;8.32;;;-6.50;99.90;;;;;;5033561;28;20033;-75
2024/01/09 06:44:10;;;;;;;16.38;8.55;;;-6.50;99.90;;;;;;5033459;28;20051;-74
2024/01/09 06:46:36;;;;;;;18.15;9.50;;;-6.40;99.90;;;;;;5033534;28;20017;-75
2024/01/09 06:49:01;;;;;;;26.05;11.27;;;-6.40;99.90;;;;;;5032497;28;20040;-75
2024/01/09 06:51:28;;;;;;;24.40;11.93;;;-6.40;99.90;;;;;;5033469;28;20366;-75
2024/01/09 06:53:54;;;;;;;25.35;12.25;;;-6.40;99.90;;;;;;5033358;28;20104;-75
2024/01/09 06:56:20;;;;;;;27.55;12.52;;;-6.40;99.90;;;;;;5033378;28;20533;-75
2024/01/09 06:58:45;;;;;;;23.98;12.10;;;-6.50;99.90;;;;;;5033605;28;20032;-75
2024/01/09 07:01:12;;;;;;;26.33;11.40;;;-6.40;99.90;;;;;;5033761;28;20057;-74
2024/01/09 07:03:37;;;;;;;21.00;10.80;;;-6.50;99.90;;;;;;5052639;28;20033;-75
2024/01/09 07:06:04;;;;;;;25.50;11.98;;;-6.60;99.90;;;;;;5053400;28;20542;-75
2024/01/09 07:08:29;;;;;;;23.30;11.02;;;-6.70;99.90;;;;;;5053164;28;20500;-75
2024/01/09 07:10:56;;;;;;;23.58;12.35;;;-6.80;99.90;;;;;;5037455;28;20041;-74
2024/01/09 07:13:22;;;;;;;20.77;9.07;;;-6.90;99.90;;;;;;5033128;28;20036;-74
2024/01/09 07:15:49;;;;;;;23.00;9.68;;;-7.00;99.90;;;;;;5037590;28;20029;-74
2024/01/09 07:18:15;;;;;;;19.75;8.75;;;-7.10;99.90;;;;;;5052863;28;20025;-75
2024/01/09 07:20:42;;;;;;;21.05;9.40;;;-7.10;99.90;;;;;;5053135;28;20029;-75
2024/01/09 07:23:08;;;;;;;18.65;9.25;;;-7.10;99.90;;;;;;5052944;28;20021;-75
2024/01/09 07:25:33;;;;;;;18.25;8.27;;;-7.10;99.90;;;;;;5053048;28;20028;-75
2024/01/09 07:27:59;;;;;;;23.23;9.75;;;-7.10;99.90;;;;;;5053014;28;20480;-75
2024/01/09 07:30:25;;;;;;;20.13;9.10;;;-7.00;99.90;;;;;;5051494;28;20025;-74
2024/01/09 07:32:50;;;;;;;17.67;9.07;;;-6.90;99.90;;;;;;5050957;28;20466;-74
2024/01/09 07:35:16;;;;;;;21.38;10.00;;;-6.90;99.90;;;;;;5053418;28;20534;-75
2024/01/09 07:37:42;;;;;;;23.00;10.00;;;-6.90;99.90;;;;;;5052930;28;20021;-75
2024/01/09 07:40:09;;;;;;;21.15;10.02;;;-6.80;99.90;;;;;;5042039;28;20509;-74
2024/01/09 07:42:35;;;;;;;22.45;10.07;;;-6.80;99.90;;;;;;5031756;28;20393;-75
2024/01/09 07:45:01;;;;;;;22.05;9.75;;;-6.70;99.90;;;;;;5032710;28;20033;-74
2024/01/09 07:47:26;;;;;;;23.77;11.15;;;-6.70;99.90;;;;;;5032932;28;20021;-75
2024/01/09 07:49:52;;;;;;;22.20;10.95;;;-6.80;99.90;;;;;;5033271;28;20493;-75
2024/01/09 07:52:18;;;;;;;22.35;10.75;;;-6.90;99.90;;;;;;5036651;28;20030;-75
2024/01/09 07:54:44;;;;;;;26.10;11.13;;;-6.90;99.90;;;;;;5051420;28;20033;-74
2024/01/09 07:57:10;;;;;;;24.27;10.98;;;-6.90;99.90;;;;;;5056541;28;20554;-75
2024/01/09 07:59:36;;;;;;;25.63;12.32;;;-6.90;99.90;;;;;;5055004;28;20029;-74
2024/01/09 08:02:01;;;;;;;25.13;11.07;;;-6.90;99.90;;;;;;5050095;28;20069;-74
2024/01/09 08:04:28;;;;;;;27.73;14.52;;;-6.90;99.90;;;;;;5036070;28;20041;-74
2024/01/09 08:06:54;;;;;;;28.05;12.25;;;-6.90;99.90;;;;;;5036663;28;20033;-74
2024/01/09 08:09:20;;;;;;;34.50;16.33;;;-7.00;99.90;;;;;;5037446;28;20026;-74
2024/01/09 08:11:49;;;;;;;32.72;14.50;;;-6.90;99.90;;;;;;5055650;28;20029;-75
2024/01/09 08:14:14;;;;;;;23.85;11.45;;;-6.90;99.90;;;;;;5055914;28;20049;-73
2024/01/09 08:16:40;;;;;;;28.65;11.18;;;-6.90;99.90;;;;;;5056470;28;20481;-74
2024/01/09 08:19:07;;;;;;;27.83;10.85;;;-7.00;99.90;;;;;;5056163;28;20112;-74
2024/01/09 08:21:35;;;;;;;26.25;10.68;;;-7.00;99.90;;;;;;5056063;28;20029;-74
2024/01/09 08:24:01;;;;;;;25.20;11.10;;;-7.00;99.90;;;;;;5050856;28;20033;-73
2024/01/09 08:26:26;;;;;;;31.95;13.27;;;-7.00;99.90;;;;;;5036064;28;20438;-74
2024/01/09 08:28:52;;;;;;;28.73;14.13;;;-6.90;99.90;;;;;;5036467;28;20032;-74
2024/01/09 08:31:18;;;;;;;31.42;14.02;;;-6.90;99.90;;;;;;5035712;28;20021;-74
2024/01/09 08:33:43;;;;;;;25.73;12.90;;;-6.80;99.90;;;;;;5036146;28;20022;-74
2024/01/09 08:36:09;;;;;;;30.13;12.52;;;-6.70;99.90;;;;;;5036160;28;20033;-74
2024/01/09 08:38:35;;;;;;;29.20;13.02;;;-6.70;99.90;;;;;;5035968;28;20021;-74
2024/01/09 08:41:02;;;;;;;39.03;20.27;;;-6.60;99.90;;;;;;5042273;28;20119;-74
2024/01/09 08:43:28;;;;;;;33.35;14.05;;;-6.60;99.90;;;;;;5055790;28;20500;-74
2024/01/09 08:45:54;;;;;;;30.02;15.40;;;-6.50;99.90;;;;;;5054132;28;20048;-74
2024/01/09 08:48:20;;;;;;;33.75;15.25;;;-6.50;99.90;;;;;;5055556;28;20029;-74
2024/01/09 08:50:46;;;;;;;27.60;12.82;;;-6.40;99.90;;;;;;5055820;28;20031;-72
2024/01/09 08:53:11;;;;;;;27.00;11.27;;;-6.30;99.90;;;;;;5054166;28;20029;-72
2024/01/09 08:55:37;;;;;;;27.77;12.60;;;-6.40;99.90;;;;;;5055416;28;20025;-72
2024/01/09 08:58:03;;;;;;;31.00;12.77;;;-6.40;99.90;;;;;;5039198;28;20096;-73
2024/01/09 09:00:29;;;;;;;29.48;12.98;;;-6.50;99.90;;;;;;5035196;28;20029;-73
2024/01/09 09:02:55;;;;;;;27.35;12.93;;;-6.50;99.90;;;;;;5034924;28;20396;-73
2024/01/09 09:05:20;;;;;;;32.63;13.60;;;-6.50;99.90;;;;;;5034169;28;20041;-73
2024/01/09 09:07:46;;;;;;;29.27;12.77;;;-6.40;99.90;;;;;;5035290;28;20080;-73
2024/01/09 09:10:12;;;;;;;27.45;12.73;;;-6.30;99.90;;;;;;5035150;28;20029;-73
2024/01/09 09:12:37;;;;;;;27.98;12.93;;;-6.20;99.90;;;;;;5035081;28;20025;-73
2024/01/09 09:15:03;;;;;;;29.33;12.98;;;-6.00;99.90;;;;;;5033907;28;20036;-73
2024/01/09 09:17:30;;;;;;;28.27;13.05;;;-5.90;99.90;;;;;;5035095;28;20084;-73
2024/01/09 09:19:56;;;;;;;33.78;12.95;;;-5.80;99.90;;;;;;5035044;28;20025;-73
2024/01/09 09:22:25;;;;;;;27.23;12.32;;;-5.80;99.90;;;;;;5034982;28;20030;-73
2024/01/09 09:24:54;;;;;;;33.63;13.75;;;-5.70;99.90;;;;;;5033760;28;20030;-73
2024/01/09 09:27:20;;;;;;;40.42;16.25;;;-5.70;99.90;;;;;;5035171;28;20029;-73
2024/01/09 09:29:46;;;;;;;41.33;16.48;;;-5.60;99.90;;;;;;5035701;28;20032;-73
2024/01/09 09:32:11;;;;;;;38.97;16.77;;;-5.50;99.90;;;;;;5034822;28;20057;-73
2024/01/09 09:34:40;;;;;;;32.88;14.90;;;-5.40;99.90;;;;;;5034726;28;20131;-74
2024/01/09 09:37:07;;;;;;;28.48;13.18;;;-5.40;99.90;;;;;;5034689;28;20026;-74
2024/01/09 09:39:36;;;;;;;37.75;17.45;;;-5.30;99.90;;;;;;5034633;28;20029;-73
2024/01/09 09:42:02;;;;;;;51.85;21.45;;;-5.20;99.90;;;;;;5033476;28;20036;-74
2024/01/09 09:44:27;;;;;;;45.55;19.08;;;-5.30;99.90;;;;;;5034427;28;20038;-74
2024/01/09 09:46:58;;;;;;;45.30;19.10;;;-5.30;99.90;;;;;;5034617;28;20093;-74
2024/01/09 09:49:24;;;;;;;;;;;-5.20;99.90;;;;;;5034871;28;20045;-74
2024/01/09 09:51:52;;;;;;;36.72;16.70;;;-5.20;99.90;;;;;;5034436;28;19978;-74
2024/01/09 09:54:19;;;;;;;40.67;17.23;;;-5.10;99.90;;;;;;5034311;28;20389;-74
2024/01/09 09:56:45;;;;;;;39.45;17.92;;;-5.10;99.90;;;;;;5034472;28;20436;-74
2024/01/09 09:59:11;;;;;;;37.95;17.92;;;-5.00;99.90;;;;;;5034252;28;20026;-74
2024/01/09 10:01:38;;;;;;;37.10;17.77;;;-4.90;99.90;;;;;;5032866;28;20032;-74
2024/01/09 10:04:30;;;;;;;37.45;16.88;;;-4.80;99.90;;;;;;5049477;28;20039;-74
2024/01/09 10:06:57;;;;;;;38.42;16.85;;;-4.70;99.90;;;;;;5053787;28;20051;-74
2024/01/09 10:09:31;;;;;;;34.05;16.23;;;-4.60;99.90;;;;;;5052339;28;20075;-74
2024/01/09 10:11:57;;;;;;;30.77;15.30;;;-4.50;99.90;;;;;;5034410;28;20021;-74
2024/01/09 10:14:23;;;;;;;30.42;14.82;;;-4.40;99.90;;;;;;5032434;28;20037;-74
2024/01/09 10:16:50;;;;;;;38.13;17.98;;;-4.30;99.90;;;;;;5033919;28;20034;-74
2024/01/09 10:19:17;;;;;;;42.40;18.40;;;-4.30;99.90;;;;;;5040889;28;20024;-74
2024/01/09 10:21:43;;;;;;;42.47;19.50;;;-4.20;99.90;;;;;;5053901;28;20079;-74
2024/01/09 10:24:09;;;;;;;43.13;18.77;;;-4.20;99.90;;;;;;5053660;28;20029;-74
2024/01/09 10:26:34;;;;;;;45.15;18.75;;;-4.20;99.90;;;;;;5053710;28;20034;-74
2024/01/09 10:29:01;;;;;;;41.92;19.83;;;-4.10;99.90;;;;;;5053716;28;20029;-74
2024/01/09 10:31:29;;;;;;;47.25;19.05;;;-4.10;99.90;;;;;;5053477;28;20045;-74
2024/01/09 10:33:56;;;;;;;34.20;16.65;;;-4.10;99.90;;;;;;5041778;28;20104;-74
2024/01/09 10:36:22;;;;;;;33.67;15.23;;;-4.00;99.90;;;;;;5033700;28;20038;-74
2024/01/09 10:38:48;;;;;;;51.40;17.00;;;-4.00;99.90;;;;;;5032510;28;20033;-74
2024/01/09 10:41:18;;;;;;;34.72;15.38;;;-4.00;99.90;;;;;;5033624;28;20021;-74
2024/01/09 10:43:44;;;;;;;34.30;15.50;;;-3.90;99.90;;;;;;5033565;28;20030;-74
2024/01/09 10:46:10;;;;;;;42.40;18.80;;;-3.80;99.90;;;;;;5033371;28;20426;-74
2024/01/09 10:48:38;;;;;;;39.25;18.20;;;-3.70;99.90;;;;;;5057207;23;20128;-71
2024/01/09 10:51:05;;;;;;;41.75;18.17;;;-3.70;99.90;;;;;;5032021;28;20033;-71
2024/01/09 10:53:34;;;;;;;38.00;17.92;;;-3.60;99.90;;;;;;5033418;28;20044;-71
2024/01/09 10:56:03;;;;;;;44.40;17.30;;;-3.60;99.90;;;;;;5033503;28;20040;-71
2024/01/09 10:58:28;;;;;;;37.22;16.60;;;-3.50;99.90;;;;;;5033297;28;20025;-71
2024/01/09 11:00:54;;;;;;;31.30;15.35;;;-3.50;99.90;;;;;;5031859;28;20025;-72
2024/01/09 11:03:20;;;;;;;32.42;15.73;;;-3.50;99.90;;;;;;5033508;28;20034;-72
2024/01/09 11:05:51;;;;;;;38.67;15.75;;;-3.50;99.90;;;;;;5033210;28;20045;-72
2024/01/09 11:08:18;;;;;;;36.65;14.65;;;-3.60;99.90;;;;;;5033283;28;20041;-72
2024/01/09 11:10:45;;;;;;;34.97;16.02;;;-3.60;99.90;;;;;;5033382;28;20032;-72
2024/01/09 11:13:12;;;;;;;29.05;14.57;;;-3.60;99.90;;;;;;5033283;28;20134;-72
2024/01/09 11:15:44;;;;;;;43.33;17.85;;;-3.70;99.90;;;;;;5032995;28;20499;-72
2024/01/09 11:18:14;;;;;;;40.63;17.25;;;-3.70;99.90;;;;;;5033028;28;20112;-72
2024/01/09 11:20:40;;;;;;;37.13;16.17;;;-3.70;99.90;;;;;;5033729;28;20050;-72
2024/01/09 11:23:05;;;;;;;36.42;15.55;;;-3.60;99.90;;;;;;5031887;28;20389;-72
2024/01/09 11:25:33;;;;;;;32.58;15.65;;;-3.50;99.90;;;;;;5034639;28;20045;-72
2024/01/09 11:28:00;;;;;;;35.30;13.68;;;-3.50;99.90;;;;;;5037036;28;20430;-72
2024/01/09 11:30:29;;;;;;;34.28;15.75;;;-3.40;99.90;;;;;;5037083;28;20029;-72
2024/01/09 11:33:18;;;;;;;36.53;16.75;;;-3.30;99.90;;;;;;5037020;28;20108;-72
2024/01/09 11:35:44;;;;;;;37.10;16.42;;;-3.20;99.90;;;;;;5036591;28;20021;-72
2024/01/09 11:38:10;;;;;;;46.85;19.42;;;-3.20;99.90;;;;;;5035589;28;20116;-72
2024/01/09 11:40:36;;;;;;;37.72;16.92;;;-3.20;99.90;;;;;;5036949;28;20068;-72
2024/01/09 11:43:02;;;;;;;32.75;16.30;;;-3.20;99.90;;;;;;5036753;28;20022;-72
2024/01/09 11:45:27;;;;;;;45.13;19.15;;;-3.20;99.90;;;;;;5036616;28;20048;-72
2024/01/09 11:47:53;;;;;;;48.30;20.05;;;-3.10;99.90;;;;;;5036618;28;20072;-72
2024/01/09 11:50:20;;;;;;;41.63;17.95;;;-3.10;99.90;;;;;;5036799;28;20030;-72
2024/01/09 11:52:47;;;;;;;41.17;17.63;;;-3.10;99.90;;;;;;5036634;28;20025;-71
2024/01/09 11:55:14;;;;;;;49.72;17.67;;;-3.10;99.90;;;;;;5035469;28;20032;-71
2024/01/09 11:57:42;;;;;;;42.55;18.08;;;-3.10;99.90;;;;;;5036497;28;20032;-72
2024/01/09 12:00:09;;;;;;;40.72;18.77;;;-3.10;99.90;;;;;;5036303;28;20021;-71
2024/01/09 12:02:36;;;;;;;40.92;18.38;;;-3.10;99.90;;;;;;5036523;28;20048;-73
2024/01/09 12:05:08;;;;;;;35.47;15.85;;;-3.10;99.90;;;;;;5036442;28;20033;-72
2024/01/09 12:07:40;;;;;;;33.75;14.52;;;-3.00;99.90;;;;;;5035632;28;20076;-73
2024/01/09 12:10:08;;;;;;;33.95;15.30;;;-3.00;99.90;;;;;;5035013;28;20036;-71
2024/01/09 12:12:34;;;;;;;35.90;16.00;;;-2.90;99.90;;;;;;5036254;28;20104;-73
2024/01/09 12:15:01;;;;;;;38.50;16.13;;;-2.90;99.90;;;;;;5036058;28;20033;-73
2024/01/09 12:17:35;;;;;;;30.55;14.77;;;-2.80;99.90;;;;;;5036478;28;20386;-73
2024/01/09 12:20:01;;;;;;;27.25;13.57;;;-2.70;99.90;;;;;;5036264;28;20025;-73
2024/01/09 12:22:27;;;;;;;30.52;14.52;;;-2.60;99.90;;;;;;5036144;28;20389;-72
2024/01/09 12:24:55;;;;;;;35.38;16.15;;;-2.50;99.90;;;;;;5035818;28;20057;-73
2024/01/09 12:27:23;;;;;;;31.67;14.75;;;-2.40;99.90;;;;;;5034706;28;20029;-74